createdAt,value
2023-04-03T00:01:44.249Z,2.45
2023-04-03T00:04:13.694Z,2.50
2023-04-03T00:06:43.058Z,2.45
2023-04-03T00:09:12.612Z,2.72
2023-04-03T00:11:41.684Z,1.98
2023-04-03T00:14:12.538Z,2.55
2023-04-03T00:16:41.673Z,2.30
2023-04-03T00:19:12.889Z,1.92
2023-04-03T00:21:42.341Z,2.72
2023-04-03T00:24:11.760Z,1.95
2023-04-03T00:26:40.869Z,2.10
2023-04-03T00:29:11.616Z,2.33
2023-04-03T00:31:41.132Z,2.88
2023-04-03T00:34:11.158Z,2.30
2023-04-03T00:36:40.442Z,2.67
2023-04-03T00:39:09.832Z,2.33
2023-04-03T00:41:38.883Z,2.17
2023-04-03T00:44:45.041Z,2.53
2023-04-03T00:47:16.988Z,2.40
2023-04-03T00:49:47.760Z,3.17
2023-04-03T00:52:21.397Z,2.88
2023-04-03T00:54:54.425Z,2.60
2023-04-03T00:57:24.951Z,3.45
2023-04-03T00:59:59.830Z,3.20
2023-04-03T01:02:29.043Z,3.45
2023-04-03T01:04:58.662Z,3.03
2023-04-03T01:07:32.478Z,3.33
2023-04-03T01:10:04.503Z,3.30
2023-04-03T01:12:36.436Z,2.95
2023-04-03T01:15:10.131Z,3.53
2023-04-03T01:17:41.487Z,3.40
2023-04-03T01:20:43.289Z,2.72
2023-04-03T01:23:32.826Z,3.38
2023-04-03T01:26:02.423Z,2.72
2023-04-03T01:28:35.032Z,4.15
2023-04-03T01:31:18.360Z,2.47
2023-04-03T01:33:51.117Z,2.40
2023-04-03T01:36:25.473Z,2.08
2023-04-03T01:38:55.948Z,2.75
2023-04-03T01:41:26.740Z,2.60
2023-04-03T01:44:01.156Z,2.63
2023-04-03T01:46:30.640Z,2.15
2023-04-03T01:49:01.221Z,2.30
2023-04-03T01:51:31.604Z,2.40
2023-04-03T01:54:00.665Z,2.45
2023-04-03T01:56:30.913Z,2.50
2023-04-03T01:59:00.183Z,4.32
2023-04-03T02:01:29.582Z,2.33
2023-04-03T02:04:00.253Z,2.50
2023-04-03T02:06:29.712Z,2.35
2023-04-03T02:08:58.802Z,2.17
2023-04-03T02:11:28.278Z,2.60
2023-04-03T02:13:57.449Z,2.50
2023-04-03T02:16:27.234Z,2.05
2023-04-03T02:18:56.381Z,2.42
2023-04-03T02:21:27.349Z,2.25
2023-04-03T02:23:56.759Z,2.50
2023-04-03T02:26:27.276Z,2.38
2023-04-03T02:28:56.387Z,3.45
2023-04-03T02:31:25.864Z,2.40
2023-04-03T02:33:55.455Z,2.60
2023-04-03T02:36:27.064Z,2.40
2023-04-03T02:39:01.203Z,2.20
2023-04-03T02:41:35.990Z,3.47
2023-04-03T02:44:09.243Z,2.03
2023-04-03T02:46:38.770Z,2.58
2023-04-03T02:49:08.303Z,2.10
2023-04-03T02:51:39.206Z,3.08
2023-04-03T02:54:09.497Z,2.53
2023-04-03T02:56:41.885Z,2.45
2023-04-03T02:59:11.242Z,2.33
2023-04-03T03:01:42.582Z,2.90
2023-04-03T03:04:11.773Z,2.80
2023-04-03T03:06:43.667Z,2.97
2023-04-03T03:09:14.169Z,3.05
2023-04-03T03:11:46.026Z,2.47
2023-04-03T03:14:15.186Z,2.50
2023-04-03T03:16:44.522Z,3.13
2023-04-03T03:19:14.074Z,3.38
2023-04-03T03:21:45.034Z,3.25
2023-04-03T03:24:14.254Z,2.70
2023-04-03T03:26:43.583Z,3.15
2023-04-03T03:29:12.632Z,2.67
2023-04-03T03:31:42.057Z,2.35
2023-04-03T03:34:11.275Z,2.22
2023-04-03T03:36:41.930Z,3.80
2023-04-03T03:39:12.743Z,2.88
2023-04-03T03:41:42.260Z,2.78
2023-04-03T03:44:11.665Z,2.85
2023-04-03T03:46:41.128Z,2.83
2023-04-03T03:49:10.932Z,3.90
2023-04-03T03:51:40.853Z,2.78
2023-04-03T03:56:42.230Z,3.10
2023-04-03T03:59:13.252Z,2.65
2023-04-03T04:01:43.171Z,4.00
2023-04-03T04:04:12.542Z,3.22
2023-04-03T04:06:42.214Z,2.65
2023-04-03T04:09:15.104Z,3.55
2023-04-03T04:11:44.553Z,3.20
2023-04-03T04:14:14.873Z,3.17
2023-04-03T04:16:45.879Z,3.28
2023-04-03T04:19:19.468Z,3.10
2023-04-03T04:21:49.272Z,2.60
2023-04-03T04:24:20.242Z,2.85
2023-04-03T04:26:51.690Z,2.75
2023-04-03T04:29:22.713Z,2.60
2023-04-03T04:31:54.181Z,2.67
2023-04-03T04:34:25.001Z,2.40
2023-04-03T04:36:54.979Z,3.45
2023-04-03T04:39:25.890Z,2.47
2023-04-03T04:41:56.283Z,2.92
2023-04-03T04:44:26.317Z,2.60
2023-04-03T04:46:56.467Z,2.50
2023-04-03T04:49:25.897Z,2.42
2023-04-03T04:51:55.991Z,2.50
2023-04-03T04:54:31.926Z,2.45
2023-04-03T04:57:01.669Z,2.55
2023-04-03T04:59:32.001Z,2.70
2023-04-03T05:02:02.278Z,2.60
2023-04-03T05:04:32.061Z,2.90
2023-04-03T05:07:07.872Z,2.70
2023-04-03T05:09:43.164Z,2.70
2023-04-03T05:12:14.175Z,3.15
2023-04-03T05:14:49.884Z,3.22
2023-04-03T05:17:19.699Z,2.85
2023-04-03T05:19:52.949Z,2.40
2023-04-03T05:22:24.632Z,3.03
2023-04-03T05:24:58.591Z,2.65
2023-04-03T05:27:29.431Z,2.40
2023-04-03T05:30:00.824Z,2.50
2023-04-03T05:32:30.846Z,2.38
2023-04-03T05:35:14.225Z,2.10
2023-04-03T05:37:45.452Z,2.30
2023-04-03T05:40:18.580Z,2.38
2023-04-03T05:42:50.928Z,2.17
2023-04-03T05:45:22.136Z,3.00
2023-04-03T05:47:51.796Z,2.88
2023-04-03T05:50:21.155Z,3.65
2023-04-03T05:52:59.252Z,3.15
2023-04-03T05:55:32.326Z,3.03
2023-04-03T05:58:02.453Z,3.03
2023-04-03T06:00:31.669Z,2.55
2023-04-03T06:03:04.952Z,2.50
2023-04-03T06:05:34.525Z,2.97
2023-04-03T06:08:04.111Z,2.35
2023-04-03T06:13:05.866Z,2.47
2023-04-03T06:15:35.037Z,2.65
2023-04-03T06:18:04.680Z,3.35
2023-04-03T06:20:33.991Z,2.67
2023-04-03T06:23:03.497Z,2.58
2023-04-03T06:25:34.766Z,2.67
2023-04-03T06:28:04.209Z,3.28
2023-04-03T06:30:33.368Z,3.38
2023-04-03T06:33:02.894Z,2.53
2023-04-03T06:35:32.228Z,2.88
2023-04-03T06:38:02.003Z,3.38
2023-04-03T06:40:31.428Z,3.42
2023-04-03T06:43:02.505Z,3.00
2023-04-03T06:45:31.642Z,2.95
2023-04-03T06:48:01.529Z,4.10
2023-04-03T06:50:30.698Z,2.35
2023-04-03T06:53:00.189Z,2.60
2023-04-03T06:55:29.344Z,2.50
2023-04-03T06:58:01.641Z,2.63
2023-04-03T07:00:31.152Z,3.20
2023-04-03T07:03:02.033Z,2.40
2023-04-03T07:05:31.767Z,2.85
2023-04-03T07:10:30.057Z,3.00
2023-04-03T07:12:59.556Z,2.47
2023-04-03T07:15:30.898Z,2.60
2023-04-03T07:18:00.361Z,3.20
2023-04-03T07:20:29.488Z,2.17
2023-04-03T07:22:59.090Z,2.30
2023-04-03T07:25:28.288Z,2.40
2023-04-03T07:27:57.939Z,1.85
2023-04-03T07:30:27.399Z,2.50
2023-04-03T07:32:58.219Z,2.30
2023-04-03T07:35:27.492Z,2.63
2023-04-03T07:37:56.893Z,2.13
2023-04-03T07:40:25.926Z,2.65
2023-04-03T07:42:56.061Z,2.03
2023-04-03T07:47:54.903Z,2.63
2023-04-03T07:50:25.854Z,3.55
2023-04-03T07:52:58.700Z,2.70
2023-04-03T07:55:28.044Z,2.42
2023-04-03T07:57:57.712Z,2.50
2023-04-03T08:00:27.243Z,2.10
2023-04-03T08:02:57.127Z,2.42
2023-04-03T08:05:27.720Z,2.40
2023-04-03T08:07:57.242Z,2.17
2023-04-03T08:10:26.426Z,2.55
2023-04-03T08:12:55.764Z,3.65
2023-04-03T08:15:25.583Z,1.90
2023-04-03T08:17:55.141Z,2.22
2023-04-03T08:20:24.682Z,3.65
2023-04-03T08:22:55.563Z,1.85
2023-04-03T08:25:25.143Z,2.10
2023-04-03T08:30:23.390Z,2.10
2023-04-03T08:32:52.968Z,3.17
2023-04-03T08:35:22.138Z,2.50
2023-04-03T08:37:51.543Z,2.10
2023-04-03T08:40:22.392Z,3.13
2023-04-03T08:43:04.661Z,2.42
2023-04-03T08:45:44.817Z,2.35
2023-04-03T08:48:18.033Z,1.90
2023-04-03T08:50:53.075Z,2.28
2023-04-03T08:53:25.683Z,2.22
2023-04-03T08:55:57.231Z,1.77
2023-04-03T08:58:29.275Z,2.13
2023-04-03T09:01:02.661Z,2.15
2023-04-03T09:03:33.914Z,2.20
2023-04-03T09:06:05.905Z,1.80
2023-04-03T09:08:39.399Z,2.20
2023-04-03T09:11:21.705Z,1.65
2023-04-03T09:13:57.039Z,1.90
2023-04-03T09:16:38.081Z,1.95
2023-04-03T09:19:19.176Z,1.83
2023-04-03T09:21:48.845Z,2.17
2023-04-03T09:24:19.607Z,2.00
2023-04-03T09:26:56.196Z,2.50
2023-04-03T09:29:27.306Z,1.90
2023-04-03T09:32:01.834Z,2.55
2023-04-03T09:34:35.260Z,2.40
2023-04-03T09:37:07.110Z,1.73
2023-04-03T09:39:54.650Z,1.83
2023-04-03T09:42:27.416Z,1.73
2023-04-03T09:44:58.931Z,1.70
2023-04-03T09:47:30.375Z,1.90
2023-04-03T09:50:24.156Z,2.17
2023-04-03T09:52:54.434Z,1.70
2023-04-03T09:55:28.648Z,2.60
2023-04-03T09:58:02.449Z,2.15
2023-04-03T10:00:38.639Z,1.92
2023-04-03T10:03:25.943Z,2.15
2023-04-03T10:05:56.688Z,1.83
2023-04-03T10:08:28.582Z,1.83
2023-04-03T10:11:17.045Z,2.30
2023-04-03T10:14:00.652Z,1.88
2023-04-03T10:16:39.051Z,2.10
2023-04-03T10:19:32.204Z,2.20
2023-04-03T10:22:06.026Z,2.67
2023-04-03T10:24:44.257Z,2.03
2023-04-03T10:27:19.935Z,1.88
2023-04-03T10:29:57.689Z,1.70
2023-04-03T10:32:51.395Z,2.17
2023-04-03T10:35:36.370Z,2.42
2023-04-03T10:38:13.571Z,1.63
2023-04-03T10:40:53.958Z,2.00
2023-04-03T10:43:34.735Z,2.47
2023-04-03T10:46:09.482Z,2.30
2023-04-03T10:48:56.498Z,1.67
2023-04-03T10:51:35.281Z,1.73
2023-04-03T10:54:14.025Z,2.20
2023-04-03T10:56:47.732Z,3.10
2023-04-03T10:59:31.832Z,2.35
2023-04-03T11:02:06.740Z,2.20
2023-04-03T11:04:41.501Z,1.80
2023-04-03T11:07:17.161Z,1.98
2023-04-03T11:09:49.371Z,2.05
2023-04-03T11:12:27.325Z,2.78
2023-04-03T11:14:58.891Z,2.22
2023-04-03T11:17:39.857Z,2.40
2023-04-03T11:20:18.783Z,2.97
2023-04-03T11:22:53.083Z,2.10
2023-04-03T11:25:25.731Z,2.53
2023-04-03T11:27:59.133Z,1.90
2023-04-03T11:30:34.931Z,2.15
2023-04-03T11:33:31.306Z,2.72
2023-04-03T11:36:12.555Z,2.17
2023-04-03T11:38:54.029Z,1.92
2023-04-03T11:41:29.970Z,1.90
2023-04-03T11:44:01.731Z,2.35
2023-04-03T11:46:58.031Z,2.30
2023-04-03T11:49:54.932Z,1.88
2023-04-03T11:53:02.173Z,1.90
2023-04-03T11:55:57.784Z,1.55
2023-04-03T11:58:29.215Z,2.08
2023-04-03T12:01:01.217Z,2.08
2023-04-03T12:04:03.506Z,2.05
2023-04-03T12:07:15.922Z,2.17
2023-04-03T12:10:30.921Z,2.47
2023-04-03T12:13:19.926Z,1.60
2023-04-03T12:16:01.472Z,1.85
2023-04-03T12:18:59.660Z,1.80
2023-04-03T12:22:08.492Z,1.70
2023-04-03T12:24:40.158Z,1.73
2023-04-03T12:27:27.313Z,1.70
2023-04-03T12:30:04.182Z,2.25
2023-04-03T12:32:56.256Z,1.60
2023-04-03T12:35:36.895Z,1.80
2023-04-03T12:39:00.393Z,2.30
2023-04-03T12:41:40.798Z,1.52
2023-04-03T12:44:38.171Z,2.45
2023-04-03T12:47:29.399Z,3.13
2023-04-03T12:49:59.783Z,2.65
2023-04-03T12:52:37.453Z,1.50
2023-04-03T12:55:19.034Z,1.90
2023-04-03T12:57:48.605Z,2.25
2023-04-03T13:00:36.166Z,3.08
2023-04-03T13:03:07.644Z,1.90
2023-04-03T13:05:38.263Z,2.05
2023-04-03T13:08:12.039Z,2.20
2023-04-03T13:10:54.313Z,1.80
2023-04-03T13:13:24.293Z,2.20
2023-04-03T13:15:56.248Z,1.52
2023-04-03T13:18:28.875Z,1.77
2023-04-03T13:21:05.710Z,1.60
2023-04-03T13:23:37.342Z,1.50
2023-04-03T13:26:08.434Z,1.63
2023-04-03T13:28:38.779Z,2.08
2023-04-03T13:31:21.322Z,1.60
2023-04-03T13:33:59.153Z,2.45
2023-04-03T13:36:33.170Z,2.20
2023-04-03T13:39:05.165Z,2.22
2023-04-03T13:41:37.677Z,3.38
2023-04-03T13:44:28.343Z,3.20
2023-04-03T13:47:01.361Z,2.60
2023-04-03T13:49:37.114Z,2.42
2023-04-03T13:52:26.010Z,2.15
2023-04-03T13:57:27.570Z,1.98
2023-04-03T14:02:34.305Z,1.88
2023-04-03T14:05:09.288Z,1.80
2023-04-03T14:07:39.862Z,1.58
2023-04-03T14:12:41.798Z,1.65
2023-04-03T14:15:20.992Z,1.63
2023-04-03T14:17:53.438Z,1.73
2023-04-03T14:20:25.710Z,1.33
2023-04-03T14:22:56.263Z,1.45
2023-04-03T14:25:26.769Z,1.05
2023-04-03T14:27:57.214Z,1.45
2023-04-03T14:30:29.005Z,1.10
2023-04-03T14:33:00.759Z,1.70
2023-04-03T14:35:30.098Z,1.85
2023-04-03T14:37:59.491Z,1.92
2023-04-03T14:40:29.675Z,2.08
2023-04-03T14:42:59.345Z,1.30
2023-04-03T14:45:29.025Z,2.95
2023-04-03T14:48:01.329Z,2.00
2023-04-03T14:50:30.948Z,2.20
2023-04-03T14:55:30.470Z,2.97
2023-04-03T14:58:00.045Z,2.13
2023-04-03T15:00:29.341Z,1.90
2023-04-03T15:03:00.546Z,1.33
2023-04-03T15:05:29.824Z,1.25
2023-04-03T15:10:33.999Z,1.70
2023-04-03T15:13:04.186Z,1.70
2023-04-03T15:15:34.680Z,1.25
2023-04-03T15:18:05.954Z,0.95
2023-04-03T15:20:35.186Z,3.67
2023-04-03T15:23:05.424Z,1.95
2023-04-03T15:25:35.944Z,1.75
2023-04-03T15:28:10.527Z,1.60
2023-04-03T15:30:42.534Z,1.88
2023-04-03T15:33:13.578Z,1.95
2023-04-03T15:35:43.983Z,2.10
2023-04-03T15:38:13.760Z,1.83
2023-04-03T15:40:43.577Z,1.58
2023-04-03T15:43:13.418Z,2.38
2023-04-03T15:45:43.909Z,2.47
2023-04-03T15:48:15.467Z,2.53
2023-04-03T15:50:45.013Z,2.13
2023-04-03T15:53:14.452Z,3.25
2023-04-03T15:55:44.966Z,3.50
2023-04-03T15:58:14.472Z,3.30
2023-04-03T16:00:43.689Z,1.85
2023-04-03T16:05:47.553Z,5.13
2023-04-03T16:08:18.765Z,3.95
2023-04-03T16:10:48.347Z,3.90
2023-04-03T16:15:47.155Z,2.20
2023-04-03T16:18:19.543Z,2.25
2023-04-03T16:20:49.516Z,3.50
2023-04-03T16:23:19.715Z,2.53
2023-04-03T16:25:50.769Z,3.70
2023-04-03T16:28:21.889Z,3.55
2023-04-03T16:30:51.519Z,2.42
2023-04-03T16:35:53.089Z,2.50
2023-04-03T16:38:23.302Z,2.33
2023-04-03T16:40:53.436Z,2.55
2023-04-03T16:43:23.508Z,2.70
2023-04-03T16:48:23.507Z,3.30
2023-04-03T16:50:54.328Z,3.85
2023-04-03T16:53:24.944Z,2.65
2023-04-03T16:55:54.840Z,3.03
2023-04-03T17:00:54.681Z,2.90
2023-04-03T17:03:26.851Z,2.70
2023-04-03T17:05:56.265Z,3.50
2023-04-03T17:08:25.620Z,4.25
2023-04-03T17:10:56.042Z,3.00
2023-04-03T17:13:32.052Z,3.88
2023-04-03T17:16:03.980Z,6.43
2023-04-03T17:18:36.368Z,2.67
2023-04-03T17:21:06.816Z,3.10
2023-04-03T17:23:38.453Z,3.40
2023-04-03T17:26:08.088Z,3.17
2023-04-03T17:31:07.766Z,6.40
2023-04-03T17:33:39.069Z,6.18
2023-04-03T17:36:08.929Z,6.35
2023-04-03T17:38:39.142Z,5.05
2023-04-03T17:41:10.365Z,4.30
2023-04-03T17:43:39.844Z,7.43
2023-04-03T17:46:11.671Z,8.27
2023-04-03T17:48:43.383Z,9.27
2023-04-03T17:51:14.761Z,15.05
2023-04-03T17:53:47.479Z,20.27
2023-04-03T17:56:20.056Z,13.05
2023-04-03T17:58:50.058Z,3.90
2023-04-03T18:01:21.790Z,2.88
2023-04-03T18:03:56.205Z,3.78
2023-04-03T18:06:30.212Z,3.20
2023-04-03T18:09:06.783Z,3.13
2023-04-03T18:11:37.139Z,3.53
2023-04-03T18:14:08.702Z,3.00
2023-04-03T18:16:38.410Z,3.03
2023-04-03T18:19:22.013Z,3.30
2023-04-03T18:21:53.639Z,2.60
2023-04-03T18:24:25.036Z,3.38
2023-04-03T18:26:59.824Z,3.83
2023-04-03T18:29:33.298Z,2.53
2023-04-03T18:32:05.136Z,3.35
2023-04-03T18:34:36.621Z,3.25
2023-04-03T18:37:06.357Z,3.72
2023-04-03T18:39:36.279Z,3.50
2023-04-03T18:42:09.465Z,3.35
2023-04-03T18:44:42.840Z,2.75
2023-04-03T18:47:12.674Z,3.53
2023-04-03T18:49:44.066Z,3.90
2023-04-03T18:52:16.694Z,3.40
2023-04-03T18:54:51.202Z,3.25
2023-04-03T18:57:20.849Z,3.47
2023-04-03T18:59:54.769Z,4.45
2023-04-03T19:02:26.039Z,3.65
2023-04-03T19:04:57.407Z,3.80
2023-04-03T19:07:26.861Z,4.63
2023-04-03T19:09:57.254Z,3.42
2023-04-03T19:14:56.398Z,4.20
2023-04-03T19:17:25.853Z,5.18
2023-04-03T19:19:56.720Z,4.55
2023-04-03T19:22:26.317Z,3.90
2023-04-03T19:24:56.057Z,3.05
2023-04-03T19:27:25.201Z,3.40
2023-04-03T19:29:54.622Z,3.22
2023-04-03T19:32:24.811Z,3.67
2023-04-03T19:34:54.612Z,3.00
2023-04-03T19:37:26.786Z,3.72
2023-04-03T19:39:56.601Z,3.42
2023-04-03T19:42:28.487Z,3.13
2023-04-03T19:44:58.889Z,3.10
2023-04-03T19:49:58.327Z,2.55
2023-04-03T19:52:28.948Z,2.75
2023-04-03T19:54:58.680Z,2.97
2023-04-03T19:57:28.237Z,2.45
2023-04-03T20:02:27.184Z,2.42
2023-04-03T20:04:57.804Z,2.67
2023-04-03T20:07:28.850Z,2.83
2023-04-03T20:10:00.006Z,2.88
2023-04-03T20:12:29.569Z,2.78
2023-04-03T20:15:00.346Z,3.70
2023-04-03T20:17:30.613Z,2.95
2023-04-03T20:20:06.985Z,2.47
2023-04-03T20:22:41.794Z,2.67
2023-04-03T20:25:23.685Z,2.60
2023-04-03T20:28:05.366Z,4.20
2023-04-03T20:30:38.869Z,2.47
2023-04-03T20:33:10.183Z,2.70
2023-04-03T20:35:41.766Z,3.15
2023-04-03T20:38:15.458Z,3.60
2023-04-03T20:40:45.763Z,3.28
2023-04-03T20:43:17.438Z,2.55
2023-04-03T20:45:48.467Z,2.33
2023-04-03T20:48:18.712Z,2.63
2023-04-03T20:50:53.384Z,2.50
2023-04-03T20:53:25.307Z,2.80
2023-04-03T20:56:01.409Z,3.92
2023-04-03T20:58:35.174Z,2.70
2023-04-03T21:01:13.458Z,2.90
2023-04-03T21:03:43.273Z,3.42
2023-04-03T21:06:50.972Z,2.55
2023-04-03T21:09:57.913Z,2.60
2023-04-03T21:13:04.520Z,2.60
2023-04-03T21:15:49.081Z,2.70
2023-04-03T21:18:35.997Z,3.65
2023-04-03T21:21:05.967Z,2.67
2023-04-03T21:23:35.495Z,3.33
2023-04-03T21:26:04.576Z,3.58
2023-04-03T21:28:34.111Z,3.90
2023-04-03T21:31:03.210Z,2.80
2023-04-03T21:33:34.616Z,3.75
2023-04-03T21:36:07.717Z,2.25
2023-04-03T21:38:40.709Z,2.90
2023-04-03T21:41:10.045Z,3.45
2023-04-03T21:43:39.393Z,2.60
2023-04-03T21:46:08.760Z,4.10
2023-04-03T21:48:39.557Z,3.00
2023-04-03T21:51:08.857Z,2.53
2023-04-03T21:53:38.801Z,3.47
2023-04-03T21:56:08.710Z,2.90
2023-04-03T21:58:38.170Z,2.55
2023-04-03T22:01:11.831Z,2.85
2023-04-03T22:03:43.810Z,3.42
2023-04-03T22:06:14.112Z,2.50
2023-04-03T22:08:44.233Z,2.60
2023-04-03T22:11:15.046Z,2.45
2023-04-03T22:13:45.517Z,2.85
2023-04-03T22:16:14.820Z,2.53
2023-04-03T22:18:45.639Z,3.70
2023-04-03T22:21:14.710Z,2.22
2023-04-03T22:23:44.234Z,3.42
2023-04-03T22:26:14.674Z,3.60
2023-04-03T22:28:46.096Z,2.90
2023-04-03T22:31:17.052Z,3.22
2023-04-03T22:33:48.055Z,3.72
2023-04-03T22:36:17.272Z,2.90
2023-04-03T22:38:46.815Z,2.78
2023-04-03T22:41:15.968Z,2.75
2023-04-03T22:43:45.372Z,2.97
2023-04-03T22:46:14.822Z,2.47
2023-04-03T22:48:45.329Z,2.95
2023-04-03T22:51:16.081Z,2.25
2023-04-03T22:53:45.389Z,2.70
2023-04-03T22:56:14.519Z,3.30
2023-04-03T22:58:44.892Z,3.55
2023-04-03T23:01:15.931Z,3.45
2023-04-03T23:03:45.546Z,2.53
2023-04-03T23:06:15.945Z,2.83
2023-04-03T23:08:45.468Z,2.92
2023-04-03T23:11:14.556Z,3.38
2023-04-03T23:13:44.312Z,2.85
2023-04-03T23:16:13.839Z,2.58
2023-04-03T23:18:43.790Z,3.08
2023-04-03T23:21:12.952Z,2.50
2023-04-03T23:23:43.716Z,3.13
2023-04-03T23:26:12.935Z,3.30
2023-04-03T23:28:42.799Z,2.97
2023-04-03T23:31:11.941Z,2.58
2023-04-03T23:33:43.936Z,2.65
2023-04-03T23:36:15.948Z,1.90
2023-04-03T23:38:46.914Z,2.60
2023-04-03T23:41:16.216Z,3.22
2023-04-03T23:43:47.547Z,2.33
2023-04-03T23:46:17.060Z,2.65
2023-04-03T23:48:46.456Z,3.20
2023-04-03T23:51:15.651Z,2.47
2023-04-03T23:53:46.399Z,2.42
2023-04-03T23:56:15.569Z,5.05
2023-04-03T23:58:44.959Z,4.40
